sensor_id;sensor_type;location;lat;lon;timestamp;pressure;altitude;pressure_sealevel;temperature;humidity
60212;BME280;46079;48.686;15.598;2023-01-28T00:01:10;100189.41;;;19.96;42.69
60212;BME280;46079;48.686;15.598;2023-01-28T00:03:36;100195.31;;;19.98;42.65
60212;BME280;46079;48.686;15.598;2023-01-28T00:06:07;100190.06;;;19.98;42.69
60212;BME280;46079;48.686;15.598;2023-01-28T00:08:33;100191.75;;;19.99;42.64
60212;BME280;46079;48.686;15.598;2023-01-28T00:11:00;100198.78;;;19.99;42.70
60212;BME280;46079;48.686;15.598;2023-01-28T00:13:27;100197.84;;;20.00;42.69
60212;BME280;46079;48.686;15.598;2023-01-28T00:15:54;100198.66;;;20.01;42.92
60212;BME280;46079;48.686;15.598;2023-01-28T00:18:24;100198.66;;;20.01;42.21
60212;BME280;46079;48.686;15.598;2023-01-28T00:21:09;100188.16;;;20.01;41.55
60212;BME280;46079;48.686;15.598;2023-01-28T00:23:36;100195.06;;;20.02;42.19
60212;BME280;46079;48.686;15.598;2023-01-28T00:26:11;100192.44;;;20.02;42.26
60212;BME280;46079;48.686;15.598;2023-01-28T00:28:37;100191.50;;;20.03;42.70
60212;BME280;46079;48.686;15.598;2023-01-28T00:31:14;100186.25;;;20.03;43.00
60212;BME280;46079;48.686;15.598;2023-01-28T00:33:44;100182.78;;;20.02;42.24
60212;BME280;46079;48.686;15.598;2023-01-28T00:36:11;100180.16;;;20.02;41.84
60212;BME280;46079;48.686;15.598;2023-01-28T00:38:36;100181.94;;;20.02;41.67
60212;BME280;46079;48.686;15.598;2023-01-28T00:41:09;100179.31;;;20.02;41.57
60212;BME280;46079;48.686;15.598;2023-01-28T00:43:36;100175.75;;;20.03;41.88
60212;BME280;46079;48.686;15.598;2023-01-28T00:46:03;100175.84;;;20.01;42.09
60212;BME280;46079;48.686;15.598;2023-01-28T00:48:29;100179.19;;;20.03;42.10
60212;BME280;46079;48.686;15.598;2023-01-28T00:50:54;100189.69;;;20.03;42.40
60212;BME280;46079;48.686;15.598;2023-01-28T00:53:20;100181.00;;;20.03;42.29
60212;BME280;46079;48.686;15.598;2023-01-28T00:55:46;100174.91;;;20.02;42.33
60212;BME280;46079;48.686;15.598;2023-01-28T00:58:11;100185.28;;;20.04;42.61
60212;BME280;46079;48.686;15.598;2023-01-28T01:00:37;100184.44;;;20.03;42.62
60212;BME280;46079;48.686;15.598;2023-01-28T01:03:05;100182.66;;;20.04;42.49
60212;BME280;46079;48.686;15.598;2023-01-28T01:05:30;100178.22;;;20.04;42.66
60212;BME280;46079;48.686;15.598;2023-01-28T01:07:58;100193.03;;;20.05;42.63
60212;BME280;46079;48.686;15.598;2023-01-28T01:10:24;100192.19;;;20.05;42.68
60212;BME280;46079;48.686;15.598;2023-01-28T01:12:49;100194.69;;;20.06;42.73
60212;BME280;46079;48.686;15.598;2023-01-28T01:15:16;100186.94;;;20.05;42.86
60212;BME280;46079;48.686;15.598;2023-01-28T01:17:45;100197.31;;;20.06;42.60
60212;BME280;46079;48.686;15.598;2023-01-28T01:20:23;100196.50;;;20.06;42.84
60212;BME280;46079;48.686;15.598;2023-01-28T01:22:50;100194.69;;;20.06;42.91
60212;BME280;46079;48.686;15.598;2023-01-28T01:25:16;100195.50;;;20.07;42.93
60212;BME280;46079;48.686;15.598;2023-01-28T01:27:43;100193.72;;;20.07;42.79
60212;BME280;46079;48.686;15.598;2023-01-28T01:30:11;100192.91;;;20.07;42.91
60212;BME280;46079;48.686;15.598;2023-01-28T01:32:37;100191.09;;;20.07;42.92
60212;BME280;46079;48.686;15.598;2023-01-28T01:35:04;100189.31;;;20.08;43.07
60212;BME280;46079;48.686;15.598;2023-01-28T01:37:36;100187.63;;;20.07;43.07
60212;BME280;46079;48.686;15.598;2023-01-28T01:40:02;100196.22;;;20.09;43.12
60212;BME280;46079;48.686;15.598;2023-01-28T01:42:31;100205.91;;;20.08;43.21
60212;BME280;46079;48.686;15.598;2023-01-28T01:48:32;100200.66;;;20.08;43.12
60212;BME280;46079;48.686;15.598;2023-01-28T01:50:42;100204.94;;;20.09;43.14
60212;BME280;46079;48.686;15.598;2023-01-28T01:53:15;100206.72;;;20.09;43.11
60212;BME280;46079;48.686;15.598;2023-01-28T01:55:49;100208.38;;;20.10;43.11
60212;BME280;46079;48.686;15.598;2023-01-28T01:58:18;100204.00;;;20.10;43.08
60212;BME280;46079;48.686;15.598;2023-01-28T02:00:45;100196.22;;;20.09;43.19
60212;BME280;46079;48.686;15.598;2023-01-28T02:03:11;100205.75;;;20.10;43.10
60212;BME280;46079;48.686;15.598;2023-01-28T02:05:37;100202.31;;;20.09;43.18
60212;BME280;46079;48.686;15.598;2023-01-28T02:08:03;100200.50;;;20.10;43.19
60212;BME280;46079;48.686;15.598;2023-01-28T02:11:16;100189.06;;;20.11;42.55
60212;BME280;46079;48.686;15.598;2023-01-28T02:13:48;100193.50;;;20.10;42.18
60212;BME280;46079;48.686;15.598;2023-01-28T02:16:15;100204.00;;;20.10;42.22
60212;BME280;46079;48.686;15.598;2023-01-28T02:18:40;100197.88;;;20.10;41.94
60212;BME280;46079;48.686;15.598;2023-01-28T02:24:04;100194.44;;;20.09;43.10
60212;BME280;46079;48.686;15.598;2023-01-28T02:27:06;100196.22;;;20.09;43.25
60212;BME280;46079;48.686;15.598;2023-01-28T02:32:26;100187.38;;;20.10;43.55
60212;BME280;46079;48.686;15.598;2023-01-28T02:37:43;100196.94;;;20.11;43.39
60212;BME280;46079;48.686;15.598;2023-01-28T02:40:21;100196.94;;;20.11;43.71
60212;BME280;46079;48.686;15.598;2023-01-28T02:42:47;100195.97;;;20.12;43.77
60212;BME280;46079;48.686;15.598;2023-01-28T02:45:26;100194.31;;;20.11;43.90
60212;BME280;46079;48.686;15.598;2023-01-28T02:48:13;100195.25;;;20.10;43.69
60212;BME280;46079;48.686;15.598;2023-01-28T02:50:48;100204.81;;;20.11;43.81
60212;BME280;46079;48.686;15.598;2023-01-28T02:53:23;100210.06;;;20.11;43.86
60212;BME280;46079;48.686;15.598;2023-01-28T02:56:18;100206.47;;;20.12;43.86
60212;BME280;46079;48.686;15.598;2023-01-28T02:59:28;100204.81;;;20.11;43.81
60212;BME280;46079;48.686;15.598;2023-01-28T03:02:01;100208.38;;;20.10;43.86
60212;BME280;46079;48.686;15.598;2023-01-28T03:04:33;100208.38;;;20.10;43.98
60212;BME280;46079;48.686;15.598;2023-01-28T03:07:04;100216.25;;;20.10;43.95
60212;BME280;46079;48.686;15.598;2023-01-28T03:09:32;100202.19;;;20.11;43.85
60212;BME280;46079;48.686;15.598;2023-01-28T03:12:17;100208.38;;;20.10;44.22
60212;BME280;46079;48.686;15.598;2023-01-28T03:15:09;100210.06;;;20.11;44.13
60212;BME280;46079;48.686;15.598;2023-01-28T03:18:03;100203.13;;;20.10;44.27
60212;BME280;46079;48.686;15.598;2023-01-28T03:20:55;100212.69;;;20.11;44.08
60212;BME280;46079;48.686;15.598;2023-01-28T03:23:46;100210.19;;;20.09;44.19
60212;BME280;46079;48.686;15.598;2023-01-28T03:26:36;100214.50;;;20.10;43.91
60212;BME280;46079;48.686;15.598;2023-01-28T03:29:22;100214.50;;;20.10;44.14
60212;BME280;46079;48.686;15.598;2023-01-28T03:32:06;100221.41;;;20.11;44.27
60212;BME280;46079;48.686;15.598;2023-01-28T03:34:51;100223.19;;;20.11;44.22
60212;BME280;46079;48.686;15.598;2023-01-28T03:37:36;100229.41;;;20.10;44.08
60212;BME280;46079;48.686;15.598;2023-01-28T03:40:06;100228.56;;;20.09;44.26
60212;BME280;46079;48.686;15.598;2023-01-28T03:42:32;100231.06;;;20.11;44.21
60212;BME280;46079;48.686;15.598;2023-01-28T03:44:58;100232.03;;;20.10;44.25
60212;BME280;46079;48.686;15.598;2023-01-28T03:47:27;100226.78;;;20.10;44.31
60212;BME280;46079;48.686;15.598;2023-01-28T03:49:54;100227.75;;;20.09;44.40
60212;BME280;46079;48.686;15.598;2023-01-28T03:52:26;100229.41;;;20.10;44.51
60212;BME280;46079;48.686;15.598;2023-01-28T03:54:52;100229.41;;;20.10;44.37
60212;BME280;46079;48.686;15.598;2023-01-28T03:57:20;100228.56;;;20.09;44.49
60212;BME280;46079;48.686;15.598;2023-01-28T03:59:46;100231.19;;;20.09;44.70
60212;BME280;46079;48.686;15.598;2023-01-28T04:02:17;100227.63;;;20.10;44.40
60212;BME280;46079;48.686;15.598;2023-01-28T04:04:44;100230.38;;;20.09;43.68
60212;BME280;46079;48.686;15.598;2023-01-28T04:07:11;100223.31;;;20.09;43.52
60212;BME280;46079;48.686;15.598;2023-01-28T04:09:38;100225.94;;;20.09;44.10
60212;BME280;46079;48.686;15.598;2023-01-28T04:12:04;100222.50;;;20.09;44.14
60212;BME280;46079;48.686;15.598;2023-01-28T04:14:31;100233.00;;;20.09;44.45
60212;BME280;46079;48.686;15.598;2023-01-28T04:16:57;100231.34;;;20.08;44.11
60212;BME280;46079;48.686;15.598;2023-01-28T04:19:22;100226.09;;;20.08;44.30
60212;BME280;46079;48.686;15.598;2023-01-28T04:21:48;100224.28;;;20.08;44.13
60212;BME280;46079;48.686;15.598;2023-01-28T04:24:15;100221.78;;;20.07;44.39
60212;BME280;46079;48.686;15.598;2023-01-28T04:26:40;100215.81;;;20.05;44.26
60212;BME280;46079;48.686;15.598;2023-01-28T04:29:06;100228.00;;;20.06;44.31
60212;BME280;46079;48.686;15.598;2023-01-28T04:31:32;100234.91;;;20.07;44.46
60212;BME280;46079;48.686;15.598;2023-01-28T04:33:57;100234.91;;;20.07;44.62
60212;BME280;46079;48.686;15.598;2023-01-28T04:36:23;100232.28;;;20.07;44.39
60212;BME280;46079;48.686;15.598;2023-01-28T04:38:49;100231.44;;;20.06;44.39
60212;BME280;46079;48.686;15.598;2023-01-28T04:41:14;100233.25;;;20.06;44.50
60212;BME280;46079;48.686;15.598;2023-01-28T04:43:40;100234.91;;;20.07;44.39
60212;BME280;46079;48.686;15.598;2023-01-28T04:46:05;100237.69;;;20.05;44.52
60212;BME280;46079;48.686;15.598;2023-01-28T04:48:32;100237.69;;;20.05;44.47
60212;BME280;46079;48.686;15.598;2023-01-28T04:50:59;100241.97;;;20.06;44.41
60212;BME280;46079;48.686;15.598;2023-01-28T04:53:25;100238.50;;;20.06;44.56
60212;BME280;46079;48.686;15.598;2023-01-28T04:56:00;100241.13;;;20.06;44.86
60212;BME280;46079;48.686;15.598;2023-01-28T04:58:25;100240.31;;;20.05;44.44
60212;BME280;46079;48.686;15.598;2023-01-28T05:00:55;100245.56;;;20.05;44.46
60212;BME280;46079;48.686;15.598;2023-01-28T05:03:22;100238.75;;;20.03;44.67
60212;BME280;46079;48.686;15.598;2023-01-28T05:05:48;100244.69;;;20.05;44.59
60212;BME280;46079;48.686;15.598;2023-01-28T05:08:13;100238.75;;;20.03;44.45
60212;BME280;46079;48.686;15.598;2023-01-28T05:10:39;100249.13;;;20.04;44.50
60212;BME280;46079;48.686;15.598;2023-01-28T05:13:05;100248.28;;;20.04;44.66
60212;BME280;46079;48.686;15.598;2023-01-28T05:15:31;100240.41;;;20.04;44.93
60212;BME280;46079;48.686;15.598;2023-01-28T05:17:56;100240.56;;;20.02;44.53
60212;BME280;46079;48.686;15.598;2023-01-28T05:20:22;100244.00;;;20.03;44.16
60212;BME280;46079;48.686;15.598;2023-01-28T05:22:47;100241.38;;;20.03;44.37
60212;BME280;46079;48.686;15.598;2023-01-28T05:25:12;100250.91;;;20.04;44.54
60212;BME280;46079;48.686;15.598;2023-01-28T05:27:38;100250.22;;;20.02;44.54
60212;BME280;46079;48.686;15.598;2023-01-28T05:30:04;100243.31;;;20.01;44.55
60212;BME280;46079;48.686;15.598;2023-01-28T05:32:31;100249.38;;;20.01;44.45
60212;BME280;46079;48.686;15.598;2023-01-28T05:34:56;100253.81;;;20.01;44.59
60212;BME280;46079;48.686;15.598;2023-01-28T05:37:22;100258.22;;;20.00;44.54
60212;BME280;46079;48.686;15.598;2023-01-28T05:39:47;100261.69;;;20.01;44.49
60212;BME280;46079;48.686;15.598;2023-01-28T05:42:13;100245.94;;;20.01;44.52
60212;BME280;46079;48.686;15.598;2023-01-28T05:44:40;100256.44;;;20.01;44.47
60212;BME280;46079;48.686;15.598;2023-01-28T05:47:05;100253.91;;;19.99;44.46
60212;BME280;46079;48.686;15.598;2023-01-28T05:49:31;100258.22;;;20.00;44.47
60212;BME280;46079;48.686;15.598;2023-01-28T05:52:06;100262.66;;;19.99;44.43
60212;BME280;46079;48.686;15.598;2023-01-28T05:54:31;100259.16;;;19.99;44.58
60212;BME280;46079;48.686;15.598;2023-01-28T05:56:56;100263.59;;;19.98;44.55
60212;BME280;46079;48.686;15.598;2023-01-28T05:59:22;100259.16;;;19.99;44.68
60212;BME280;46079;48.686;15.598;2023-01-28T06:01:47;100267.19;;;19.97;44.63
60212;BME280;46079;48.686;15.598;2023-01-28T06:04:13;100261.13;;;19.97;44.62
60212;BME280;46079;48.686;15.598;2023-01-28T06:06:39;100262.78;;;19.98;44.76
60212;BME280;46079;48.686;15.598;2023-01-28T06:09:04;100268.03;;;19.98;44.57
60212;BME280;46079;48.686;15.598;2023-01-28T06:11:30;100272.44;;;19.97;44.72
60212;BME280;46079;48.686;15.598;2023-01-28T06:13:55;100268.16;;;19.96;44.76
60212;BME280;46079;48.686;15.598;2023-01-28T06:16:20;100276.88;;;19.97;44.52
60212;BME280;46079;48.686;15.598;2023-01-28T06:18:46;100273.41;;;19.96;44.63
60212;BME280;46079;48.686;15.598;2023-01-28T06:21:12;100275.19;;;19.96;44.79
60212;BME280;46079;48.686;15.598;2023-01-28T06:23:37;100282.22;;;19.95;44.66
60212;BME280;46079;48.686;15.598;2023-01-28T06:26:03;100279.59;;;19.95;44.63
60212;BME280;46079;48.686;15.598;2023-01-28T06:28:28;100285.69;;;19.96;44.75
60212;BME280;46079;48.686;15.598;2023-01-28T06:30:54;100290.94;;;19.96;44.51
60212;BME280;46079;48.686;15.598;2023-01-28T06:33:20;100293.69;;;19.94;44.57
60212;BME280;46079;48.686;15.598;2023-01-28T06:35:46;100300.75;;;19.94;44.62
60212;BME280;46079;48.686;15.598;2023-01-28T06:38:12;100307.78;;;19.93;44.75
60212;BME280;46079;48.686;15.598;2023-01-28T06:40:38;100301.69;;;19.93;44.85
60212;BME280;46079;48.686;15.598;2023-01-28T06:43:13;100299.91;;;19.93;44.99
60212;BME280;46079;48.686;15.598;2023-01-28T06:45:38;100299.91;;;19.93;44.88
60212;BME280;46079;48.686;15.598;2023-01-28T06:48:04;100306.13;;;19.92;44.75
60212;BME280;46079;48.686;15.598;2023-01-28T06:50:29;100303.50;;;19.92;44.75
60212;BME280;46079;48.686;15.598;2023-01-28T06:52:55;100310.53;;;19.92;44.65
60212;BME280;46079;48.686;15.598;2023-01-28T06:55:20;100306.13;;;19.92;44.65
60212;BME280;46079;48.686;15.598;2023-01-28T06:57:45;100310.53;;;19.92;44.72
60212;BME280;46079;48.686;15.598;2023-01-28T07:00:11;100314.97;;;19.91;44.87
60212;BME280;46079;48.686;15.598;2023-01-28T07:02:39;100315.78;;;19.92;44.78
60212;BME280;46079;48.686;15.598;2023-01-28T07:05:05;100323.66;;;19.92;44.71
60212;BME280;46079;48.686;15.598;2023-01-28T07:07:31;100321.03;;;19.92;45.01
60212;BME280;46079;48.686;15.598;2023-01-28T07:09:57;100319.25;;;19.92;44.70
60212;BME280;46079;48.686;15.598;2023-01-28T07:12:23;100314.97;;;19.91;44.88
60212;BME280;46079;48.686;15.598;2023-01-28T07:14:48;100315.78;;;19.92;45.07
60212;BME280;46079;48.686;15.598;2023-01-28T07:17:13;100321.03;;;19.92;44.83
60212;BME280;46079;48.686;15.598;2023-01-28T07:19:39;100308.84;;;19.91;44.74
60212;BME280;46079;48.686;15.598;2023-01-28T07:22:04;100309.72;;;19.91;45.12
60212;BME280;46079;48.686;15.598;2023-01-28T07:24:30;100316.72;;;19.91;44.87
60212;BME280;46079;48.686;15.598;2023-01-28T07:26:55;100324.59;;;19.91;45.03
60212;BME280;46079;48.686;15.598;2023-01-28T07:29:21;100323.66;;;19.92;44.83
60212;BME280;46079;48.686;15.598;2023-01-28T07:31:46;100325.56;;;19.90;45.04
60212;BME280;46079;48.686;15.598;2023-01-28T07:34:12;100328.19;;;19.90;44.93
60212;BME280;46079;48.686;15.598;2023-01-28T07:36:37;100328.19;;;19.90;44.71
60212;BME280;46079;48.686;15.598;2023-01-28T07:39:03;100330.00;;;19.89;44.93
60212;BME280;46079;48.686;15.598;2023-01-28T07:41:28;100328.34;;;19.88;45.08
60212;BME280;46079;48.686;15.598;2023-01-28T07:43:54;100330.97;;;19.88;44.74
60212;BME280;46079;48.686;15.598;2023-01-28T07:46:19;100329.28;;;19.87;44.92
60212;BME280;46079;48.686;15.598;2023-01-28T07:48:46;100331.91;;;19.87;45.04
60212;BME280;46079;48.686;15.598;2023-01-28T07:51:11;100337.97;;;19.88;45.03
60212;BME280;46079;48.686;15.598;2023-01-28T07:53:37;100337.16;;;19.87;44.99
60212;BME280;46079;48.686;15.598;2023-01-28T07:56:03;100342.41;;;19.87;44.97
60212;BME280;46079;48.686;15.598;2023-01-28T07:58:29;100344.19;;;19.87;45.09
60212;BME280;46079;48.686;15.598;2023-01-28T08:00:57;100351.25;;;19.86;44.92
60212;BME280;46079;48.686;15.598;2023-01-28T08:03:23;100344.19;;;19.87;45.02
60212;BME280;46079;48.686;15.598;2023-01-28T08:05:51;100347.66;;;19.87;44.85
60212;BME280;46079;48.686;15.598;2023-01-28T08:08:20;100354.69;;;19.87;44.87
60212;BME280;46079;48.686;15.598;2023-01-28T08:10:45;100361.75;;;19.86;44.95
60212;BME280;46079;48.686;15.598;2023-01-28T08:13:12;100362.69;;;19.85;44.99
60212;BME280;46079;48.686;15.598;2023-01-28T08:15:38;100361.88;;;19.85;45.23
60212;BME280;46079;48.686;15.598;2023-01-28T08:18:04;100367.94;;;19.85;45.10
60212;BME280;46079;48.686;15.598;2023-01-28T08:20:30;100364.63;;;19.83;44.88
60212;BME280;46079;48.686;15.598;2023-01-28T08:23:11;100383.00;;;19.83;45.14
60212;BME280;46079;48.686;15.598;2023-01-28T08:25:37;100385.63;;;19.83;45.19
60212;BME280;46079;48.686;15.598;2023-01-28T08:28:03;100383.84;;;19.84;45.17
60212;BME280;46079;48.686;15.598;2023-01-28T08:30:29;100380.38;;;19.83;44.93
60212;BME280;46079;48.686;15.598;2023-01-28T08:32:56;100390.88;;;19.83;44.91
60212;BME280;46079;48.686;15.598;2023-01-28T08:35:26;100388.38;;;19.82;45.15
60212;BME280;46079;48.686;15.598;2023-01-28T08:37:52;100398.88;;;19.82;45.19
60212;BME280;46079;48.686;15.598;2023-01-28T08:40:18;100396.22;;;19.82;43.76
60212;BME280;46079;48.686;15.598;2023-01-28T08:42:48;100401.50;;;19.82;42.81
60212;BME280;46079;48.686;15.598;2023-01-28T08:45:14;100404.47;;;19.77;41.92
60212;BME280;46079;48.686;15.598;2023-01-28T08:50:20;100396.34;;;19.58;39.61
60212;BME280;46079;48.686;15.598;2023-01-28T08:52:46;100396.75;;;19.42;39.48
60212;BME280;46079;48.686;15.598;2023-01-28T08:55:15;100403.28;;;19.36;39.96
60212;BME280;46079;48.686;15.598;2023-01-28T08:57:42;100406.03;;;19.35;40.43
60212;BME280;46079;48.686;15.598;2023-01-28T09:00:11;100402.44;;;19.36;40.79
60212;BME280;46079;48.686;15.598;2023-01-28T09:02:37;100401.50;;;19.37;40.95
60212;BME280;46079;48.686;15.598;2023-01-28T09:05:03;100406.63;;;19.38;41.25
60212;BME280;46079;48.686;15.598;2023-01-28T09:07:29;100409.13;;;19.40;41.07
60212;BME280;46079;48.686;15.598;2023-01-28T09:09:57;100409.00;;;19.41;41.30
60212;BME280;46079;48.686;15.598;2023-01-28T09:12:23;100399.38;;;19.42;41.29
60212;BME280;46079;48.686;15.598;2023-01-28T09:14:48;100413.19;;;19.44;41.26
60212;BME280;46079;48.686;15.598;2023-01-28T09:17:14;100408.75;;;19.44;41.15
60212;BME280;46079;48.686;15.598;2023-01-28T09:19:39;100412.25;;;19.45;41.35
60212;BME280;46079;48.686;15.598;2023-01-28T09:22:05;100416.63;;;19.44;41.08
60212;BME280;46079;48.686;15.598;2023-01-28T09:24:33;100415.69;;;19.45;41.41
60212;BME280;46079;48.686;15.598;2023-01-28T09:26:58;100409.47;;;19.46;41.29
60212;BME280;46079;48.686;15.598;2023-01-28T09:29:26;100415.56;;;19.47;41.17
60212;BME280;46079;48.686;15.598;2023-01-28T09:31:51;100423.44;;;19.47;41.15
60212;BME280;46079;48.686;15.598;2023-01-28T09:34:17;100418.06;;;19.48;40.93
60212;BME280;46079;48.686;15.598;2023-01-28T09:36:42;100428.56;;;19.48;40.96
60212;BME280;46079;48.686;15.598;2023-01-28T09:39:10;100425.84;;;19.50;40.99
60212;BME280;46079;48.686;15.598;2023-01-28T09:47:02;100431.91;;;19.50;40.99
60212;BME280;46079;48.686;15.598;2023-01-28T09:49:40;100432.75;;;19.51;41.22
60212;BME280;46079;48.686;15.598;2023-01-28T09:52:12;100422.34;;;19.49;40.84
60212;BME280;46079;48.686;15.598;2023-01-28T09:54:45;100422.25;;;19.51;41.23
60212;BME280;46079;48.686;15.598;2023-01-28T09:57:28;100415.34;;;19.50;41.11
60212;BME280;46079;48.686;15.598;2023-01-28T09:59:58;100422.25;;;19.51;41.37
60212;BME280;46079;48.686;15.598;2023-01-28T10:13:56;100404.00;;;19.49;41.17
60212;BME280;46079;48.686;15.598;2023-01-28T10:19:15;100406.63;;;19.49;41.18
60212;BME280;46079;48.686;15.598;2023-01-28T10:22:18;100396.97;;;19.50;40.90
60212;BME280;46079;48.686;15.598;2023-01-28T10:24:46;100400.44;;;19.50;40.81
60212;BME280;46079;48.686;15.598;2023-01-28T10:27:17;100400.44;;;19.50;40.69
60212;BME280;46079;48.686;15.598;2023-01-28T10:29:45;100397.81;;;19.50;40.82
60212;BME280;46079;48.686;15.598;2023-01-28T10:32:35;100410.94;;;19.50;40.76
60212;BME280;46079;48.686;15.598;2023-01-28T10:35:03;100410.94;;;19.50;40.95
60212;BME280;46079;48.686;15.598;2023-01-28T10:37:36;100400.28;;;19.52;41.33
60212;BME280;46079;48.686;15.598;2023-01-28T10:40:04;100416.03;;;19.52;41.29
60212;BME280;46079;48.686;15.598;2023-01-28T10:42:32;100411.63;;;19.52;41.62
60212;BME280;46079;48.686;15.598;2023-01-28T10:45:06;100403.88;;;19.51;41.51
60212;BME280;46079;48.686;15.598;2023-01-28T10:47:37;100415.09;;;19.53;41.47
60212;BME280;46079;48.686;15.598;2023-01-28T10:50:14;100414.25;;;19.52;41.53
60212;BME280;46079;48.686;15.598;2023-01-28T10:52:52;100418.66;;;19.52;41.66
60212;BME280;46079;48.686;15.598;2023-01-28T10:55:18;100418.66;;;19.52;41.44
60212;BME280;46079;48.686;15.598;2023-01-28T10:57:43;100412.47;;;19.53;41.45
60212;BME280;46079;48.686;15.598;2023-01-28T11:00:22;100413.41;;;19.52;41.64
60212;BME280;46079;48.686;15.598;2023-01-28T11:02:49;100409.97;;;19.51;41.33
60212;BME280;46079;48.686;15.598;2023-01-28T11:05:18;100423.09;;;19.51;41.42
60212;BME280;46079;48.686;15.598;2023-01-28T11:07:46;100417.00;;;19.51;41.50
60212;BME280;46079;48.686;15.598;2023-01-28T11:10:29;100414.50;;;19.49;41.31
60212;BME280;46079;48.686;15.598;2023-01-28T11:12:59;100413.56;;;19.50;41.67
60212;BME280;46079;48.686;15.598;2023-01-28T11:15:25;100417.84;;;19.51;41.65
60212;BME280;46079;48.686;15.598;2023-01-28T11:17:57;100417.00;;;19.51;41.27
60212;BME280;46079;48.686;15.598;2023-01-28T11:20:26;100416.19;;;19.50;41.41
60212;BME280;46079;48.686;15.598;2023-01-28T11:22:53;100409.97;;;19.51;41.33
60212;BME280;46079;48.686;15.598;2023-01-28T11:25:32;100413.41;;;19.52;41.22
60212;BME280;46079;48.686;15.598;2023-01-28T11:28:02;100411.75;;;19.51;41.23
60212;BME280;46079;48.686;15.598;2023-01-28T11:30:36;100410.94;;;19.50;41.43
60212;BME280;46079;48.686;15.598;2023-01-28T11:35:38;100418.66;;;19.52;41.11
60212;BME280;46079;48.686;15.598;2023-01-28T11:38:16;100416.19;;;19.50;41.21
60212;BME280;46079;48.686;15.598;2023-01-28T11:40:51;100419.63;;;19.51;41.18
60212;BME280;46079;48.686;15.598;2023-01-28T11:43:28;100417.84;;;19.51;41.09
60212;BME280;46079;48.686;15.598;2023-01-28T11:52:29;100416.88;;;19.52;40.84
60212;BME280;46079;48.686;15.598;2023-01-28T11:54:46;100419.50;;;19.52;41.10
60212;BME280;46079;48.686;15.598;2023-01-28T11:57:25;100408.16;;;19.52;41.02
60212;BME280;46079;48.686;15.598;2023-01-28T12:07:58;100410.94;;;19.50;41.05
60212;BME280;46079;48.686;15.598;2023-01-28T12:15:57;100419.50;;;19.52;40.96
60212;BME280;46079;48.686;15.598;2023-01-28T12:23:50;100431.69;;;19.53;41.03
60212;BME280;46079;48.686;15.598;2023-01-28T12:26:44;100421.28;;;19.52;40.80
60212;BME280;46079;48.686;15.598;2023-01-28T12:32:38;100415.94;;;19.53;40.76
60212;BME280;46079;48.686;15.598;2023-01-28T12:35:31;100422.84;;;19.54;40.83
60212;BME280;46079;48.686;15.598;2023-01-28T12:40:53;100424.53;;;19.55;40.69
60212;BME280;46079;48.686;15.598;2023-01-28T12:43:34;100422.72;;;19.56;40.58
60212;BME280;46079;48.686;15.598;2023-01-28T12:46:16;100423.66;;;19.55;40.73
60212;BME280;46079;48.686;15.598;2023-01-28T12:48:46;100420.22;;;19.54;40.90
60212;BME280;46079;48.686;15.598;2023-01-28T12:54:25;100419.28;;;19.55;40.42
60212;BME280;46079;48.686;15.598;2023-01-28T12:56:55;100417.59;;;19.54;40.65
60212;BME280;46079;48.686;15.598;2023-01-28T12:59:48;100417.59;;;19.54;40.61
60212;BME280;46079;48.686;15.598;2023-01-28T13:02:32;100419.28;;;19.55;40.92
60212;BME280;46079;48.686;15.598;2023-01-28T13:07:43;100423.66;;;19.55;40.60
60212;BME280;46079;48.686;15.598;2023-01-28T13:12:40;100426.19;;;19.57;40.73
60212;BME280;46079;48.686;15.598;2023-01-28T13:15:14;100429.78;;;19.55;40.65
60212;BME280;46079;48.686;15.598;2023-01-28T13:17:59;100420.09;;;19.56;40.54
60212;BME280;46079;48.686;15.598;2023-01-28T13:20:49;100432.41;;;19.55;40.59
60212;BME280;46079;48.686;15.598;2023-01-28T13:25:53;100443.59;;;19.58;40.68
60212;BME280;46079;48.686;15.598;2023-01-28T13:28:30;100440.13;;;19.57;40.61
60212;BME280;46079;48.686;15.598;2023-01-28T13:31:05;100439.31;;;19.57;40.46
60212;BME280;46079;48.686;15.598;2023-01-28T13:33:38;100445.38;;;19.57;40.59
60212;BME280;46079;48.686;15.598;2023-01-28T13:38:43;100443.59;;;19.58;40.46
60212;BME280;46079;48.686;15.598;2023-01-28T13:41:09;100450.53;;;19.59;40.58
60212;BME280;46079;48.686;15.598;2023-01-28T13:43:39;100444.44;;;19.58;40.42
60212;BME280;46079;48.686;15.598;2023-01-28T13:46:11;100447.91;;;19.59;40.27
60212;BME280;46079;48.686;15.598;2023-01-28T13:48:45;100447.91;;;19.59;40.40
60212;BME280;46079;48.686;15.598;2023-01-28T13:51:26;100450.53;;;19.59;40.45
60212;BME280;46079;48.686;15.598;2023-01-28T13:54:03;100450.53;;;19.59;40.37
60212;BME280;46079;48.686;15.598;2023-01-28T14:07:50;100458.16;;;19.62;40.41
60212;BME280;46079;48.686;15.598;2023-01-28T14:10:24;100447.75;;;19.60;40.29
60212;BME280;46079;48.686;15.598;2023-01-28T14:18:30;100459.09;;;19.61;40.14
60212;BME280;46079;48.686;15.598;2023-01-28T14:21:00;100465.06;;;19.63;40.38
60212;BME280;46079;48.686;15.598;2023-01-28T14:23:27;100465.19;;;19.61;40.31
60212;BME280;46079;48.686;15.598;2023-01-28T14:26:16;100472.94;;;19.63;40.29
60212;BME280;46079;48.686;15.598;2023-01-28T14:29:21;100472.94;;;19.63;40.20
60212;BME280;46079;48.686;15.598;2023-01-28T14:31:51;100471.13;;;19.63;40.13
60212;BME280;46079;48.686;15.598;2023-01-28T14:34:26;100479.88;;;19.64;40.43